createdAt,value
2024-01-05T00:00:10.102Z,5.63
2024-01-05T00:01:10.008Z,5.64
2024-01-05T00:02:12.898Z,5.65
2024-01-05T00:03:10.058Z,5.64
2024-01-05T00:04:10.092Z,5.61
2024-01-05T00:05:09.938Z,5.60
2024-01-05T00:06:10.021Z,5.60
2024-01-05T00:07:09.982Z,5.56
2024-01-05T00:08:09.901Z,5.56
2024-01-05T00:09:09.961Z,5.54
2024-01-05T00:10:09.908Z,5.54
2024-01-05T00:11:09.885Z,5.56
2024-01-05T00:12:09.915Z,5.56
2024-01-05T00:13:09.909Z,5.56
2024-01-05T00:14:09.826Z,5.58
2024-01-05T00:15:09.905Z,5.58
2024-01-05T00:16:09.806Z,5.60
2024-01-05T00:17:09.801Z,5.58
2024-01-05T00:18:09.887Z,5.60
2024-01-05T00:19:09.898Z,5.61
2024-01-05T00:20:09.814Z,5.61
2024-01-05T00:21:09.792Z,5.58
2024-01-05T00:22:09.744Z,5.58
2024-01-05T00:23:09.723Z,5.56
2024-01-05T00:24:09.774Z,5.57
2024-01-05T00:25:09.709Z,5.54
2024-01-05T00:26:09.694Z,5.54
2024-01-05T00:27:09.713Z,5.56
2024-01-05T00:28:09.676Z,5.54
2024-01-05T00:29:09.643Z,5.51
2024-01-05T00:30:09.783Z,5.48
2024-01-05T00:31:09.738Z,5.49
2024-01-05T00:32:09.646Z,5.46
2024-01-05T00:33:09.662Z,5.46
2024-01-05T00:34:09.824Z,5.48
2024-01-05T00:35:09.603Z,5.49
2024-01-05T00:36:09.640Z,5.51
2024-01-05T00:37:09.571Z,5.49
2024-01-05T00:38:09.568Z,5.51
2024-01-05T00:39:09.597Z,5.51
2024-01-05T00:40:09.551Z,5.51
2024-01-05T00:41:09.512Z,5.49
2024-01-05T00:42:09.521Z,5.49
2024-01-05T00:43:09.508Z,5.48
2024-01-05T00:44:09.517Z,5.49
2024-01-05T00:45:09.550Z,5.49
2024-01-05T00:46:09.478Z,5.49
2024-01-05T00:47:09.503Z,5.49
2024-01-05T00:48:09.537Z,5.49
2024-01-05T00:49:09.548Z,5.46
2024-01-05T00:50:09.480Z,5.43
2024-01-05T00:51:09.454Z,5.40
2024-01-05T00:52:09.477Z,5.39
2024-01-05T00:53:09.385Z,5.36
2024-01-05T00:54:09.418Z,5.36
2024-01-05T00:55:09.399Z,5.36
2024-01-05T00:56:09.385Z,5.36
2024-01-05T00:57:11.551Z,5.33
2024-01-05T00:58:09.316Z,5.33
2024-01-05T00:59:09.316Z,5.30
2024-01-05T01:00:09.396Z,5.27
2024-01-05T01:01:09.284Z,5.25
2024-01-05T01:02:09.415Z,5.27
2024-01-05T01:03:09.367Z,5.27
2024-01-05T01:04:09.389Z,5.28
2024-01-05T01:05:09.338Z,5.27
2024-01-05T01:06:09.260Z,5.25
2024-01-05T01:07:09.232Z,5.25
2024-01-05T01:08:09.260Z,5.27
2024-01-05T01:09:09.252Z,5.24
2024-01-05T01:10:09.202Z,5.24
2024-01-05T01:11:09.179Z,5.24
2024-01-05T01:12:09.225Z,5.24
2024-01-05T01:13:09.148Z,5.22
2024-01-05T01:14:09.204Z,5.21
2024-01-05T01:15:09.214Z,5.21
2024-01-05T01:16:09.137Z,5.20
2024-01-05T01:17:09.105Z,5.18
2024-01-05T01:18:09.253Z,5.15
2024-01-05T01:19:09.194Z,5.17
2024-01-05T01:20:09.122Z,5.17
2024-01-05T01:21:09.142Z,5.12
2024-01-05T01:22:09.046Z,5.12
2024-01-05T01:23:09.047Z,5.13
2024-01-05T01:24:09.046Z,5.13
2024-01-05T01:25:09.054Z,5.13
2024-01-05T01:26:09.015Z,5.18
2024-01-05T01:27:09.044Z,5.18
2024-01-05T01:28:08.991Z,5.21
2024-01-05T01:29:08.960Z,5.22
2024-01-05T01:30:09.069Z,5.21
2024-01-05T01:31:09.064Z,5.21
2024-01-05T01:32:08.929Z,5.22
2024-01-05T01:33:09.178Z,5.25
2024-01-05T01:34:08.970Z,5.25
2024-01-05T01:35:08.909Z,5.27
2024-01-05T01:36:08.903Z,5.30
2024-01-05T01:37:08.927Z,5.30
2024-01-05T01:38:08.852Z,5.31
2024-01-05T01:39:08.885Z,5.31
2024-01-05T01:40:08.835Z,5.33
2024-01-05T01:41:08.818Z,5.33
2024-01-05T01:42:08.987Z,5.31
2024-01-05T01:43:08.870Z,5.33
2024-01-05T01:44:08.779Z,5.33
2024-01-05T01:45:08.799Z,5.30
2024-01-05T01:46:08.782Z,5.28
2024-01-05T01:47:08.796Z,5.28
2024-01-05T01:48:08.894Z,5.30
2024-01-05T01:49:08.996Z,5.30
2024-01-05T01:50:08.757Z,5.31
2024-01-05T01:51:08.736Z,5.33
2024-01-05T01:52:08.736Z,5.33
2024-01-05T01:53:08.717Z,5.31
2024-01-05T01:54:08.727Z,5.33
2024-01-05T01:55:08.681Z,5.33
2024-01-05T01:56:08.720Z,5.33
2024-01-05T01:57:08.759Z,5.31
2024-01-05T01:58:08.642Z,5.30
2024-01-05T01:59:08.627Z,5.31
2024-01-05T02:00:08.773Z,5.30
2024-01-05T02:01:08.697Z,5.30
2024-01-05T02:02:08.628Z,5.27
2024-01-05T02:03:08.703Z,5.28
2024-01-05T02:04:08.659Z,5.30
2024-01-05T02:05:08.563Z,5.31
2024-01-05T02:06:08.626Z,5.35
2024-01-05T02:07:08.556Z,5.35
2024-01-05T02:08:08.500Z,5.38
2024-01-05T02:09:08.494Z,5.39
2024-01-05T02:10:08.511Z,5.40
2024-01-05T02:11:08.622Z,5.40
2024-01-05T02:12:08.485Z,5.42
2024-01-05T02:13:08.470Z,5.43
2024-01-05T02:14:08.439Z,5.45
2024-01-05T02:15:08.532Z,5.46
2024-01-05T02:16:08.452Z,5.48
2024-01-05T02:17:08.429Z,5.45
2024-01-05T02:18:08.563Z,5.45
2024-01-05T02:19:08.569Z,5.46
2024-01-05T02:20:08.399Z,5.45
2024-01-05T02:21:08.417Z,5.46
2024-01-05T02:22:08.384Z,5.48
2024-01-05T02:23:08.375Z,5.48
2024-01-05T02:24:08.377Z,5.51
2024-01-05T02:25:08.324Z,5.49
2024-01-05T02:26:08.360Z,5.49
2024-01-05T02:27:08.374Z,5.49
2024-01-05T02:28:08.288Z,5.48
2024-01-05T02:29:08.305Z,5.46
2024-01-05T02:30:08.399Z,5.46
2024-01-05T02:31:08.336Z,5.46
2024-01-05T02:32:08.236Z,5.46
2024-01-05T02:33:08.339Z,5.46
2024-01-05T02:34:08.382Z,5.45
2024-01-05T02:35:08.211Z,5.45
2024-01-05T02:36:08.263Z,5.45
2024-01-05T02:37:08.203Z,5.43
2024-01-05T02:38:08.178Z,5.45
2024-01-05T02:39:08.211Z,5.45
2024-01-05T02:40:08.166Z,5.42
2024-01-05T02:41:08.168Z,5.42
2024-01-05T02:42:08.198Z,5.42
2024-01-05T02:43:08.128Z,5.42
2024-01-05T02:44:08.128Z,5.38
2024-01-05T02:45:08.198Z,5.36
2024-01-05T02:46:08.103Z,5.31
2024-01-05T02:47:08.063Z,5.31
2024-01-05T02:48:08.273Z,5.30
2024-01-05T02:49:08.226Z,5.27
2024-01-05T02:50:08.039Z,5.28
2024-01-05T02:51:08.100Z,5.25
2024-01-05T02:52:07.998Z,5.25
2024-01-05T02:53:07.987Z,5.25
2024-01-05T02:54:08.041Z,5.27
2024-01-05T02:55:08.103Z,5.27
2024-01-05T02:56:07.973Z,5.27
2024-01-05T02:57:07.987Z,5.25
2024-01-05T02:58:07.940Z,5.27
2024-01-05T02:59:07.924Z,5.28
2024-01-05T03:00:07.953Z,5.27
2024-01-05T03:01:07.953Z,5.25
2024-01-05T03:02:07.913Z,5.25
2024-01-05T03:03:08.086Z,5.24
2024-01-05T03:04:08.011Z,5.25
2024-01-05T03:05:07.941Z,5.25
2024-01-05T03:06:07.872Z,5.25
2024-01-05T03:07:07.844Z,5.25
2024-01-05T03:08:07.865Z,5.24
2024-01-05T03:09:07.824Z,5.22
2024-01-05T03:10:07.806Z,5.22
2024-01-05T03:11:07.822Z,5.22
2024-01-05T03:12:07.787Z,5.24
2024-01-05T03:13:07.789Z,5.22
2024-01-05T03:14:07.776Z,5.25
2024-01-05T03:15:07.768Z,5.24
2024-01-05T03:16:07.721Z,5.27
2024-01-05T03:17:07.711Z,5.25
2024-01-05T03:18:07.813Z,5.25
2024-01-05T03:19:07.766Z,5.25
2024-01-05T03:20:07.718Z,5.25
2024-01-05T03:21:07.704Z,5.24
2024-01-05T03:22:07.659Z,5.28
2024-01-05T03:23:07.678Z,5.24
2024-01-05T03:24:07.647Z,5.24
2024-01-05T03:25:07.672Z,5.24
2024-01-05T03:26:07.633Z,5.22
2024-01-05T03:27:07.639Z,5.21
2024-01-05T03:28:07.616Z,5.22
2024-01-05T03:29:07.594Z,5.20
2024-01-05T03:30:07.662Z,5.17
2024-01-05T03:31:07.740Z,5.15
2024-01-05T03:32:07.528Z,5.17
2024-01-05T03:33:07.603Z,5.18
2024-01-05T03:34:07.731Z,5.17
2024-01-05T03:35:07.584Z,5.18
2024-01-05T03:36:07.565Z,5.18
2024-01-05T03:37:07.495Z,5.18
2024-01-05T03:38:07.481Z,5.17
2024-01-05T03:39:07.532Z,5.17
2024-01-05T03:40:07.457Z,5.20
2024-01-05T03:41:07.429Z,5.18
2024-01-05T03:42:07.471Z,5.20
2024-01-05T03:43:07.413Z,5.21
2024-01-05T03:44:07.442Z,5.21
2024-01-05T03:45:07.520Z,5.21
2024-01-05T03:46:07.379Z,5.24
2024-01-05T03:47:07.367Z,5.25
2024-01-05T03:48:07.456Z,5.27
2024-01-05T03:49:07.525Z,5.27
2024-01-05T03:50:07.396Z,5.27
2024-01-05T03:51:07.370Z,5.28
2024-01-05T03:52:07.334Z,5.28
2024-01-05T03:53:07.294Z,5.31
2024-01-05T03:54:07.353Z,5.33
2024-01-05T03:55:07.308Z,5.33
2024-01-05T03:56:07.322Z,5.35
2024-01-05T03:57:07.293Z,5.31
2024-01-05T03:58:07.299Z,5.31
2024-01-05T03:59:07.232Z,5.31
2024-01-05T04:00:07.316Z,5.35
2024-01-05T04:01:07.283Z,5.33
2024-01-05T04:02:07.246Z,5.33
2024-01-05T04:03:07.292Z,5.31
2024-01-05T04:04:07.308Z,5.31
2024-01-05T04:05:07.209Z,5.33
2024-01-05T04:06:07.210Z,5.31
2024-01-05T04:07:07.193Z,5.35
2024-01-05T04:08:07.165Z,5.30
2024-01-05T04:09:07.161Z,5.30
2024-01-05T04:10:07.148Z,5.30
2024-01-05T04:11:07.099Z,5.30
2024-01-05T04:12:07.156Z,5.38
2024-01-05T04:13:07.068Z,5.39
2024-01-05T04:14:07.218Z,5.39
2024-01-05T04:15:07.092Z,5.40
2024-01-05T04:16:07.063Z,5.45
2024-01-05T04:17:07.050Z,5.48
2024-01-05T04:18:07.258Z,5.49
2024-01-05T04:19:07.087Z,5.49
2024-01-05T04:20:07.017Z,5.53
2024-01-05T04:21:07.035Z,5.54
2024-01-05T04:22:06.984Z,5.58
2024-01-05T04:23:06.984Z,5.65
2024-01-05T04:24:07.017Z,5.76
2024-01-05T04:25:06.940Z,5.89
2024-01-05T04:26:06.926Z,6.00
2024-01-05T04:27:07.007Z,6.12
2024-01-05T04:28:06.925Z,6.17
2024-01-05T04:29:06.933Z,6.21
2024-01-05T04:30:06.949Z,6.28
2024-01-05T04:31:06.978Z,6.31
2024-01-05T04:32:06.872Z,6.33
2024-01-05T04:33:07.028Z,6.33
2024-01-05T04:34:07.072Z,6.34
2024-01-05T04:35:06.818Z,6.34
2024-01-05T04:36:06.979Z,6.34
2024-01-05T04:37:06.855Z,6.34
2024-01-05T04:38:06.790Z,6.36
2024-01-05T04:39:06.831Z,6.40
2024-01-05T04:40:06.766Z,6.40
2024-01-05T04:41:06.776Z,6.43
2024-01-05T04:42:06.790Z,6.51
2024-01-05T04:43:06.723Z,6.52
2024-01-05T04:44:06.730Z,6.49
2024-01-05T04:45:06.776Z,6.48
2024-01-05T04:46:06.686Z,6.46
2024-01-05T04:47:06.692Z,6.48
2024-01-05T04:48:06.772Z,6.48
2024-01-05T04:49:06.825Z,6.48
2024-01-05T04:50:06.664Z,6.44
2024-01-05T04:51:06.751Z,6.43
2024-01-05T04:52:06.655Z,6.46
2024-01-05T04:53:06.631Z,6.48
2024-01-05T04:54:06.694Z,6.48
2024-01-05T04:55:06.680Z,6.51
2024-01-05T04:56:06.610Z,6.54
2024-01-05T04:57:06.597Z,6.55
2024-01-05T04:58:06.567Z,6.55
2024-01-05T04:59:06.579Z,6.54
2024-01-05T05:00:06.564Z,6.48
2024-01-05T05:01:06.547Z,6.41
2024-01-05T05:02:06.494Z,6.36
2024-01-05T05:03:06.612Z,6.30
2024-01-05T05:04:06.632Z,6.21
2024-01-05T05:05:06.529Z,6.15
2024-01-05T05:06:06.481Z,6.14
2024-01-05T05:07:06.493Z,6.12
2024-01-05T05:08:06.495Z,6.18
2024-01-05T05:09:06.479Z,6.33
2024-01-05T05:10:06.443Z,6.46
2024-01-05T05:11:06.414Z,6.52
2024-01-05T05:12:06.417Z,6.48
2024-01-05T05:13:06.376Z,6.44
2024-01-05T05:14:06.410Z,6.34
2024-01-05T05:15:06.396Z,6.21
2024-01-05T05:16:06.394Z,6.14
2024-01-05T05:17:06.350Z,6.09
2024-01-05T05:18:06.467Z,6.01
2024-01-05T05:19:06.464Z,5.96
2024-01-05T05:20:06.297Z,5.90
2024-01-05T05:21:06.362Z,5.86
2024-01-05T05:22:06.343Z,5.81
2024-01-05T05:23:06.261Z,5.75
2024-01-05T05:24:06.295Z,5.79
2024-01-05T05:25:07.563Z,5.76
2024-01-05T05:26:06.258Z,5.86
2024-01-05T05:27:06.266Z,5.93
2024-01-05T05:28:06.228Z,5.90
2024-01-05T05:29:06.189Z,5.86
2024-01-05T05:30:06.379Z,5.79
2024-01-05T05:31:06.316Z,5.74
2024-01-05T05:32:06.183Z,5.67
2024-01-05T05:33:06.213Z,5.68
2024-01-05T05:34:06.275Z,5.72
2024-01-05T05:35:06.146Z,5.75
2024-01-05T05:36:06.153Z,5.75
2024-01-05T05:37:06.135Z,5.83
2024-01-05T05:38:06.104Z,6.00
2024-01-05T05:39:06.131Z,6.12
2024-01-05T05:40:06.069Z,6.25
2024-01-05T05:41:06.100Z,6.41
2024-01-05T05:42:06.091Z,6.66
2024-01-05T05:43:06.052Z,6.80
2024-01-05T05:44:06.036Z,6.85
2024-01-05T05:45:06.009Z,6.89
2024-01-05T05:46:06.020Z,6.91
2024-01-05T05:47:06.016Z,6.87
2024-01-05T05:48:06.083Z,6.80
2024-01-05T05:49:06.054Z,6.76
2024-01-05T05:50:05.971Z,6.67
2024-01-05T05:51:05.991Z,6.54
2024-01-05T05:52:05.950Z,6.54
2024-01-05T05:53:05.961Z,6.54
2024-01-05T05:54:05.945Z,6.54
2024-01-05T05:55:05.900Z,6.54
2024-01-05T05:56:05.876Z,6.59
2024-01-05T05:57:05.904Z,6.71
2024-01-05T05:58:06.470Z,6.73
2024-01-05T05:59:05.864Z,6.70
2024-01-05T06:00:05.857Z,6.62
2024-01-05T06:01:05.866Z,6.56
2024-01-05T06:02:05.826Z,6.56
2024-01-05T06:03:05.850Z,6.55
2024-01-05T06:04:05.890Z,6.54
2024-01-05T06:05:05.791Z,6.49
2024-01-05T06:06:05.871Z,6.51
2024-01-05T06:07:05.810Z,6.61
2024-01-05T06:08:05.758Z,6.70
2024-01-05T06:09:05.757Z,6.74
2024-01-05T06:10:05.727Z,6.74
2024-01-05T06:11:05.709Z,6.70
2024-01-05T06:12:05.839Z,6.69
2024-01-05T06:13:05.690Z,6.76
2024-01-05T06:14:05.705Z,6.88
2024-01-05T06:15:05.746Z,7.02
2024-01-05T06:16:05.669Z,7.13
2024-01-05T06:17:05.686Z,7.27
2024-01-05T06:18:05.824Z,7.31
2024-01-05T06:19:05.791Z,7.35
2024-01-05T06:20:05.628Z,7.40
2024-01-05T06:21:05.636Z,7.43
2024-01-05T06:22:05.607Z,7.42
2024-01-05T06:23:05.623Z,7.43
2024-01-05T06:24:05.650Z,7.42
2024-01-05T06:25:05.597Z,7.46
2024-01-05T06:26:05.548Z,7.49
2024-01-05T06:27:05.636Z,7.50
2024-01-05T06:28:05.617Z,7.52
2024-01-05T06:29:05.551Z,7.55
2024-01-05T06:30:05.607Z,7.57
2024-01-05T06:31:05.617Z,7.58
2024-01-05T06:32:05.475Z,7.60
2024-01-05T06:33:05.580Z,7.58
2024-01-05T06:34:05.519Z,7.60
2024-01-05T06:35:05.445Z,7.61
2024-01-05T06:36:05.583Z,7.63
2024-01-05T06:37:05.401Z,7.63
2024-01-05T06:38:05.415Z,7.61
2024-01-05T06:39:05.415Z,7.63
2024-01-05T06:40:05.386Z,7.63
2024-01-05T06:41:05.377Z,7.61
2024-01-05T06:42:08.260Z,7.61
2024-01-05T06:43:05.345Z,7.61
2024-01-05T06:44:05.324Z,7.61
2024-01-05T06:45:05.366Z,7.63
2024-01-05T06:46:05.315Z,7.63
2024-01-05T06:47:05.321Z,7.64
2024-01-05T06:48:05.474Z,7.67
2024-01-05T06:49:05.506Z,7.69
2024-01-05T06:50:06.096Z,7.69
2024-01-05T06:51:05.360Z,7.68
2024-01-05T06:52:05.213Z,7.67
2024-01-05T06:53:05.225Z,7.64
2024-01-05T06:54:05.267Z,7.64
2024-01-05T06:55:05.215Z,7.64
2024-01-05T06:56:05.184Z,7.68
2024-01-05T06:57:05.241Z,7.68
2024-01-05T06:58:05.173Z,7.69
2024-01-05T06:59:05.168Z,7.74
2024-01-05T07:00:05.171Z,7.75
2024-01-05T07:01:05.166Z,7.80
2024-01-05T07:02:05.119Z,7.77
2024-01-05T07:03:05.187Z,7.77
2024-01-05T07:04:05.211Z,7.75
2024-01-05T07:05:05.114Z,7.77
2024-01-05T07:06:05.104Z,7.80
2024-01-05T07:07:05.062Z,7.83
2024-01-05T07:08:05.053Z,7.87
2024-01-05T07:09:05.087Z,7.89
2024-01-05T07:10:05.015Z,7.90
2024-01-05T07:11:05.028Z,7.87
2024-01-05T07:12:05.072Z,7.87
2024-01-05T07:13:04.968Z,7.87
2024-01-05T07:14:04.973Z,7.90
2024-01-05T07:15:04.966Z,7.92
2024-01-05T07:16:04.951Z,7.95
2024-01-05T07:17:04.977Z,7.93
2024-01-05T07:18:04.999Z,7.92
2024-01-05T07:19:05.041Z,7.92
2024-01-05T07:20:04.931Z,7.92
2024-01-05T07:21:04.935Z,7.92
2024-01-05T07:22:04.887Z,7.90
2024-01-05T07:23:04.865Z,7.90
2024-01-05T07:24:04.844Z,7.92
2024-01-05T07:25:04.856Z,7.93
2024-01-05T07:26:04.830Z,7.95
2024-01-05T07:27:04.881Z,7.95
2024-01-05T07:28:04.859Z,7.97
2024-01-05T07:29:04.811Z,7.97
2024-01-05T07:30:04.921Z,7.95
2024-01-05T07:31:04.926Z,7.93
2024-01-05T07:32:04.746Z,7.93
2024-01-05T07:33:04.902Z,7.92
2024-01-05T07:34:04.786Z,7.90
2024-01-05T07:35:04.720Z,7.89
2024-01-05T07:36:04.749Z,7.86
2024-01-05T07:37:04.726Z,7.85
2024-01-05T07:38:04.695Z,7.85
2024-01-05T07:39:04.699Z,7.85
2024-01-05T07:40:04.667Z,7.85
2024-01-05T07:41:04.665Z,7.85
2024-01-05T07:42:04.736Z,7.85
2024-01-05T07:43:04.642Z,7.83
2024-01-05T07:44:04.611Z,7.83
2024-01-05T07:45:04.652Z,7.85
2024-01-05T07:46:04.602Z,7.86
2024-01-05T07:47:04.587Z,7.85
2024-01-05T07:48:04.825Z,7.85
2024-01-05T07:49:04.679Z,7.83
2024-01-05T07:50:04.554Z,7.85
2024-01-05T07:51:04.605Z,7.83
2024-01-05T07:52:04.550Z,7.83
2024-01-05T07:53:04.574Z,7.83
2024-01-05T07:54:04.592Z,7.83
2024-01-05T07:55:04.501Z,7.83
2024-01-05T07:56:04.530Z,7.82
2024-01-05T07:57:04.526Z,7.82
2024-01-05T07:58:04.463Z,7.79
2024-01-05T07:59:04.442Z,7.82
2024-01-05T08:00:04.469Z,7.82
2024-01-05T08:01:04.479Z,7.82
2024-01-05T08:02:04.459Z,7.82
2024-01-05T08:03:04.519Z,7.82
2024-01-05T08:04:04.630Z,7.80
2024-01-05T08:05:04.380Z,7.80
2024-01-05T08:06:04.474Z,7.79
2024-01-05T08:07:04.476Z,7.82
2024-01-05T08:08:04.402Z,7.83
2024-01-05T08:09:04.371Z,7.85
2024-01-05T08:10:04.332Z,7.82
2024-01-05T08:11:04.309Z,7.83
2024-01-05T08:12:04.335Z,7.82
2024-01-05T08:13:04.314Z,7.80
2024-01-05T08:14:04.310Z,7.82
2024-01-05T08:15:04.286Z,7.83
2024-01-05T08:16:04.258Z,7.83
2024-01-05T08:17:04.244Z,7.85
2024-01-05T08:18:04.487Z,7.87
2024-01-05T08:19:04.428Z,7.85
2024-01-05T08:20:04.314Z,7.83
2024-01-05T08:21:04.241Z,7.86
2024-01-05T08:22:04.204Z,7.87
2024-01-05T08:23:04.178Z,7.89
2024-01-05T08:24:04.209Z,7.90
2024-01-05T08:25:04.185Z,7.92
2024-01-05T08:26:04.119Z,7.95
2024-01-05T08:27:04.208Z,7.95
2024-01-05T08:28:04.141Z,8.01
2024-01-05T08:29:04.100Z,8.01
2024-01-05T08:30:04.194Z,8.01
2024-01-05T08:31:04.231Z,8.02
2024-01-05T08:32:04.225Z,8.02
2024-01-05T08:33:04.228Z,8.04
2024-01-05T08:34:04.304Z,8.07
2024-01-05T08:35:04.024Z,8.11
2024-01-05T08:36:04.163Z,8.18
2024-01-05T08:37:04.045Z,8.23
2024-01-05T08:38:04.068Z,8.29
2024-01-05T08:39:04.151Z,8.34
2024-01-05T08:40:04.076Z,8.37
2024-01-05T08:41:04.118Z,8.40
2024-01-05T08:42:03.978Z,8.44
2024-01-05T08:43:04.077Z,8.47
2024-01-05T08:44:03.928Z,8.52
2024-01-05T08:45:04.053Z,8.53
2024-01-05T08:46:03.924Z,8.53
2024-01-05T08:47:03.909Z,8.52
2024-01-05T08:48:04.055Z,8.48
2024-01-05T08:49:04.037Z,8.48
2024-01-05T08:50:03.893Z,8.53
2024-01-05T08:51:03.937Z,8.55
2024-01-05T08:52:03.849Z,8.53
2024-01-05T08:53:03.807Z,8.50
2024-01-05T08:54:03.924Z,8.48
2024-01-05T08:55:03.806Z,8.52
2024-01-05T08:56:03.797Z,8.53
2024-01-05T08:57:03.827Z,8.56
2024-01-05T08:58:03.887Z,8.61
2024-01-05T08:59:03.744Z,8.63
2024-01-05T09:00:03.892Z,8.63
2024-01-05T09:01:03.853Z,8.59
2024-01-05T09:02:03.767Z,8.61
2024-01-05T09:03:03.721Z,8.58
2024-01-05T09:04:03.768Z,8.59
2024-01-05T09:05:03.713Z,8.55
2024-01-05T09:06:03.725Z,8.59
2024-01-05T09:07:03.699Z,8.58
2024-01-05T09:08:03.634Z,8.53
2024-01-05T09:09:03.666Z,8.53
2024-01-05T09:10:03.605Z,8.53
2024-01-05T09:11:03.597Z,8.55
2024-01-05T09:12:03.674Z,8.56
2024-01-05T09:13:03.613Z,8.58
2024-01-05T09:14:03.583Z,8.53
2024-01-05T09:15:03.576Z,8.53
2024-01-05T09:16:03.551Z,8.56
2024-01-05T09:17:03.534Z,8.53
2024-01-05T09:18:03.629Z,8.59
2024-01-05T09:19:03.614Z,8.65
2024-01-05T09:20:03.654Z,8.68
2024-01-05T09:21:03.613Z,8.71
2024-01-05T09:22:03.507Z,8.74
2024-01-05T09:23:03.441Z,8.84
2024-01-05T09:24:03.519Z,8.95
2024-01-05T09:25:03.422Z,8.96
2024-01-05T09:26:03.446Z,9.05
2024-01-05T09:27:03.452Z,9.10
2024-01-05T09:28:03.400Z,9.13
2024-01-05T09:29:03.417Z,9.13
2024-01-05T09:30:03.392Z,9.14
2024-01-05T09:31:03.410Z,9.14
2024-01-05T09:32:03.348Z,9.11
2024-01-05T09:33:03.486Z,9.01
2024-01-05T09:34:03.421Z,8.98
2024-01-05T09:35:03.345Z,9.01
2024-01-05T09:36:03.325Z,9.04
2024-01-05T09:37:03.292Z,9.04
2024-01-05T09:38:03.282Z,9.05
2024-01-05T09:39:03.311Z,9.10
2024-01-05T09:40:03.297Z,9.11
2024-01-05T09:41:03.265Z,9.17
2024-01-05T09:42:03.269Z,9.26
2024-01-05T09:43:03.203Z,9.24
2024-01-05T09:44:03.202Z,9.18
2024-01-05T09:45:03.272Z,9.18
2024-01-05T09:46:03.190Z,9.11
2024-01-05T09:47:03.172Z,9.05
2024-01-05T09:48:03.337Z,9.02
2024-01-05T09:49:03.307Z,8.95
2024-01-05T09:50:03.273Z,8.87
2024-01-05T09:51:03.159Z,8.81
2024-01-05T09:52:03.137Z,8.77
2024-01-05T09:53:03.108Z,8.73
2024-01-05T09:54:03.125Z,8.70
2024-01-05T09:55:03.084Z,8.71
2024-01-05T09:56:03.070Z,8.73
2024-01-05T09:57:03.154Z,8.76
2024-01-05T09:58:03.054Z,8.79
2024-01-05T09:59:03.026Z,8.83
2024-01-05T10:00:03.059Z,8.91
2024-01-05T10:01:03.052Z,8.95
2024-01-05T10:02:02.984Z,8.95
2024-01-05T10:03:03.069Z,8.95
2024-01-05T10:04:03.616Z,8.94
2024-01-05T10:05:03.083Z,8.94
2024-01-05T10:06:03.025Z,8.89
2024-01-05T10:07:03.012Z,8.87
2024-01-05T10:08:02.969Z,8.86
2024-01-05T10:09:02.937Z,8.87
2024-01-05T10:10:02.938Z,8.84
2024-01-05T10:11:02.909Z,8.84
2024-01-05T10:12:02.885Z,8.83
2024-01-05T10:13:02.874Z,8.81
2024-01-05T10:14:02.906Z,8.80
2024-01-05T10:15:02.834Z,8.80
2024-01-05T10:16:02.824Z,8.77
2024-01-05T10:17:02.825Z,8.74
2024-01-05T10:18:03.044Z,8.74
2024-01-05T10:19:02.912Z,8.76
2024-01-05T10:20:02.949Z,8.77
2024-01-05T10:21:02.805Z,8.80
2024-01-05T10:22:02.762Z,8.86
2024-01-05T10:23:02.746Z,8.92
2024-01-05T10:24:02.755Z,8.96
2024-01-05T10:25:02.737Z,9.01
2024-01-05T10:26:02.718Z,9.08
2024-01-05T10:27:02.738Z,9.17
2024-01-05T10:28:02.692Z,9.23
2024-01-05T10:29:02.651Z,9.26
2024-01-05T10:30:02.785Z,9.33
2024-01-05T10:31:02.739Z,9.39
2024-01-05T10:32:02.645Z,9.40
2024-01-05T10:33:02.692Z,9.36
2024-01-05T10:34:02.756Z,9.42
2024-01-05T10:35:02.724Z,9.36
2024-01-05T10:36:02.614Z,9.39
2024-01-05T10:37:02.564Z,9.47
2024-01-05T10:38:02.581Z,9.54
2024-01-05T10:39:02.576Z,9.60
2024-01-05T10:40:02.554Z,9.71
2024-01-05T10:41:02.585Z,9.79
2024-01-05T10:42:02.574Z,9.91
2024-01-05T10:43:02.532Z,10.04
2024-01-05T10:44:02.493Z,10.02
2024-01-05T10:45:02.599Z,10.02
2024-01-05T10:46:02.457Z,10.05
2024-01-05T10:47:02.450Z,10.12
2024-01-05T10:48:02.689Z,10.02
2024-01-05T10:49:02.640Z,10.04
2024-01-05T10:50:02.885Z,10.05
2024-01-05T10:51:02.485Z,10.05
2024-01-05T10:52:02.374Z,10.04
2024-01-05T10:53:02.370Z,9.94
2024-01-05T10:54:02.426Z,9.99
2024-01-05T10:55:02.393Z,10.08
2024-01-05T10:56:02.370Z,10.41
2024-01-05T10:57:02.373Z,10.76
2024-01-05T10:58:02.313Z,11.07
2024-01-05T10:59:02.308Z,11.46
2024-01-05T11:00:02.474Z,11.88
2024-01-05T11:01:02.599Z,12.04
2024-01-05T11:02:02.279Z,11.95
2024-01-05T11:03:02.258Z,11.91
2024-01-05T11:04:02.392Z,11.52
2024-01-05T11:05:02.357Z,11.09
2024-01-05T11:06:02.326Z,10.79
2024-01-05T11:07:02.327Z,10.52
2024-01-05T11:08:02.243Z,10.32
2024-01-05T11:09:02.205Z,10.14
2024-01-05T11:10:02.188Z,9.96
2024-01-05T11:11:02.196Z,9.79
2024-01-05T11:12:02.218Z,9.68
2024-01-05T11:13:02.171Z,9.64
2024-01-05T11:14:02.214Z,9.57
2024-01-05T11:15:02.194Z,9.54
2024-01-05T11:16:02.154Z,9.50
2024-01-05T11:17:02.145Z,9.48
2024-01-05T11:18:02.235Z,9.48
2024-01-05T11:19:02.380Z,9.38
2024-01-05T11:20:02.221Z,9.35
2024-01-05T11:21:02.098Z,9.33
2024-01-05T11:22:02.077Z,9.36
2024-01-05T11:23:02.049Z,9.36
2024-01-05T11:24:02.061Z,9.38
2024-01-05T11:25:02.013Z,9.42
2024-01-05T11:26:02.013Z,9.47
2024-01-05T11:27:02.028Z,9.48
2024-01-05T11:28:02.013Z,9.48
2024-01-05T11:29:01.977Z,9.47
2024-01-05T11:30:02.145Z,9.46
2024-01-05T11:31:02.017Z,9.43
2024-01-05T11:32:01.930Z,9.43
2024-01-05T11:33:02.091Z,9.43
2024-01-05T11:34:02.132Z,9.47
2024-01-05T11:35:01.936Z,9.51
2024-01-05T11:36:01.908Z,9.51
2024-01-05T11:37:01.875Z,9.53
2024-01-05T11:38:01.917Z,9.56
2024-01-05T11:39:01.902Z,9.54
2024-01-05T11:40:02.142Z,9.58
2024-01-05T11:41:01.832Z,9.58
2024-01-05T11:42:01.909Z,9.65
2024-01-05T11:43:01.817Z,9.75
2024-01-05T11:44:01.833Z,9.86
2024-01-05T11:45:02.051Z,9.97
2024-01-05T11:46:01.765Z,10.07
2024-01-05T11:47:01.744Z,10.17
2024-01-05T11:48:01.879Z,10.20
2024-01-05T11:49:01.796Z,10.23
2024-01-05T11:50:01.763Z,10.22
2024-01-05T11:51:01.740Z,10.30
2024-01-05T11:52:01.710Z,10.36
2024-01-05T11:53:01.687Z,10.36
2024-01-05T11:54:01.730Z,10.23
2024-01-05T11:55:01.666Z,10.22
2024-01-05T11:56:01.715Z,10.26
2024-01-05T11:57:01.740Z,10.23
2024-01-05T11:58:01.629Z,10.26
2024-01-05T11:59:01.613Z,10.29
2024-01-05T12:00:01.660Z,10.33
2024-01-05T12:01:01.852Z,10.32
2024-01-05T12:02:01.607Z,10.30
2024-01-05T12:03:01.660Z,10.26
2024-01-05T12:04:01.611Z,10.22
2024-01-05T12:05:01.576Z,10.17
2024-01-05T12:06:01.709Z,10.14
2024-01-05T12:07:01.548Z,10.11
2024-01-05T12:08:01.550Z,10.07
2024-01-05T12:09:01.631Z,10.05
2024-01-05T12:10:01.491Z,10.01
2024-01-05T12:11:01.493Z,9.97
2024-01-05T12:12:01.513Z,9.93
2024-01-05T12:13:01.434Z,9.91
2024-01-05T12:14:01.494Z,9.91
2024-01-05T12:15:01.475Z,9.91
2024-01-05T12:16:02.590Z,9.89
2024-01-05T12:17:01.402Z,9.93
2024-01-05T12:18:01.565Z,9.96
2024-01-05T12:19:01.644Z,9.99
2024-01-05T12:20:01.489Z,10.07
2024-01-05T12:21:01.384Z,10.09
2024-01-05T12:22:01.367Z,10.11
2024-01-05T12:23:01.329Z,10.12
2024-01-05T12:24:01.386Z,10.15
2024-01-05T12:25:01.325Z,10.22
2024-01-05T12:26:01.298Z,10.27
2024-01-05T12:27:01.373Z,10.25
2024-01-05T12:28:01.282Z,10.27
2024-01-05T12:29:01.295Z,10.27
2024-01-05T12:30:01.303Z,10.27
2024-01-05T12:31:01.338Z,10.25
2024-01-05T12:32:01.238Z,10.26
2024-01-05T12:33:01.319Z,10.22
2024-01-05T12:34:01.477Z,10.23
2024-01-05T12:35:01.335Z,10.20
2024-01-05T12:36:01.226Z,10.18
2024-01-05T12:37:01.225Z,10.12
2024-01-05T12:38:01.148Z,10.08
2024-01-05T12:39:01.195Z,10.07
2024-01-05T12:40:01.131Z,10.07
2024-01-05T12:41:01.137Z,10.09
2024-01-05T12:42:01.278Z,10.11
2024-01-05T12:43:01.128Z,10.14
2024-01-05T12:44:01.076Z,10.18
2024-01-05T12:45:01.126Z,10.25
2024-01-05T12:46:01.074Z,10.26
2024-01-05T12:47:01.111Z,10.26
2024-01-05T12:48:01.138Z,10.26
2024-01-05T12:49:01.279Z,10.23
2024-01-05T12:50:01.076Z,10.15
2024-01-05T12:51:01.038Z,10.12
2024-01-05T12:52:01.045Z,10.14
2024-01-05T12:53:00.974Z,10.14
2024-01-05T12:54:01.014Z,10.08
2024-01-05T12:55:00.967Z,9.99
2024-01-05T12:56:00.930Z,9.97
2024-01-05T12:57:00.988Z,10.01
2024-01-05T12:58:00.956Z,10.08
2024-01-05T12:59:01.017Z,10.12
2024-01-05T13:00:00.986Z,10.17
2024-01-05T13:01:00.916Z,10.26
2024-01-05T13:02:00.974Z,10.25
2024-01-05T13:03:00.907Z,10.11
2024-01-05T13:04:01.465Z,10.11
2024-01-05T13:05:00.864Z,10.07
2024-01-05T13:06:00.888Z,10.01
2024-01-05T13:07:00.908Z,9.93
2024-01-05T13:08:00.840Z,9.93
2024-01-05T13:09:00.996Z,9.87
2024-01-05T13:10:00.784Z,9.83
2024-01-05T13:11:00.768Z,9.81
2024-01-05T13:12:00.814Z,9.81
2024-01-05T13:13:00.755Z,9.81
2024-01-05T13:14:00.736Z,9.79
2024-01-05T13:15:00.814Z,9.78